createdAt,value
2023-03-30T00:02:09.011Z,62.20
2023-03-30T00:04:37.987Z,62.10
2023-03-30T00:07:06.116Z,62.40
2023-03-30T00:09:34.081Z,62.30
2023-03-30T00:12:03.537Z,62.30
2023-03-30T00:14:37.430Z,62.30
2023-03-30T00:17:05.496Z,63.10
2023-03-30T00:19:33.400Z,62.50
2023-03-30T00:22:01.575Z,62.70
2023-03-30T00:24:29.435Z,62.60
2023-03-30T00:26:57.385Z,62.50
2023-03-30T00:29:25.401Z,62.50
2023-03-30T00:31:54.749Z,62.50
2023-03-30T00:34:22.880Z,62.70
2023-03-30T00:36:53.335Z,62.70
2023-03-30T00:39:23.004Z,62.80
2023-03-30T00:41:52.096Z,62.60
2023-03-30T00:44:57.395Z,62.20
2023-03-30T00:47:26.727Z,62.10
2023-03-30T00:49:54.916Z,62.10
2023-03-30T00:52:24.931Z,62.30
2023-03-30T00:54:52.884Z,62.30
2023-03-30T00:57:21.107Z,62.30
2023-03-30T00:59:49.696Z,62.20
2023-03-30T01:02:18.704Z,62.30
2023-03-30T01:04:48.363Z,62.40
2023-03-30T01:07:17.020Z,62.50
2023-03-30T01:09:44.993Z,62.70
2023-03-30T01:12:12.920Z,62.50
2023-03-30T01:14:41.278Z,62.20
2023-03-30T01:17:13.527Z,62.10
2023-03-30T01:20:12.740Z,62.10
2023-03-30T01:23:03.621Z,62.20
2023-03-30T01:25:40.421Z,62.20
2023-03-30T01:28:20.551Z,62.20
2023-03-30T01:31:15.251Z,62.20
2023-03-30T01:33:58.901Z,62.30
2023-03-30T01:36:55.397Z,62.50
2023-03-30T01:39:38.170Z,62.70
2023-03-30T01:42:10.290Z,62.50
2023-03-30T01:44:41.764Z,62.50
2023-03-30T01:47:13.520Z,62.60
2023-03-30T01:49:42.901Z,62.60
2023-03-30T01:52:15.170Z,62.70
2023-03-30T01:54:46.924Z,62.90
2023-03-30T01:57:16.232Z,62.60
2023-03-30T01:59:45.276Z,62.30
2023-03-30T02:02:13.365Z,62.10
2023-03-30T02:04:41.919Z,62.10
2023-03-30T02:07:11.672Z,62.20
2023-03-30T02:09:39.626Z,62.40
2023-03-30T02:12:09.123Z,62.30
2023-03-30T02:14:37.092Z,62.30
2023-03-30T02:17:06.708Z,62.20
2023-03-30T02:19:34.884Z,62.40
2023-03-30T02:22:02.766Z,62.50
2023-03-30T02:24:32.308Z,62.80
2023-03-30T02:27:01.625Z,62.70
2023-03-30T02:29:30.916Z,62.70
2023-03-30T02:31:59.132Z,62.70
2023-03-30T02:34:39.154Z,62.70
2023-03-30T02:37:19.497Z,62.80
2023-03-30T02:39:54.196Z,62.90
2023-03-30T02:42:32.647Z,62.60
2023-03-30T02:45:08.944Z,62.30
2023-03-30T02:47:38.985Z,62.20
2023-03-30T02:50:09.921Z,62.20
2023-03-30T02:52:44.893Z,62.40
2023-03-30T02:55:16.103Z,62.50
2023-03-30T02:58:04.894Z,62.50
2023-03-30T03:00:53.105Z,62.50
2023-03-30T03:03:34.892Z,62.40
2023-03-30T03:06:02.992Z,62.60
2023-03-30T03:08:35.446Z,62.90
2023-03-30T03:11:05.355Z,62.90
2023-03-30T03:13:36.684Z,62.80
2023-03-30T03:16:07.888Z,62.80
2023-03-30T03:18:39.887Z,62.80
2023-03-30T03:21:07.969Z,62.90
2023-03-30T03:23:36.184Z,63.00
2023-03-30T03:26:04.477Z,63.10
2023-03-30T03:28:32.712Z,62.60
2023-03-30T03:31:08.452Z,62.50
2023-03-30T03:33:36.596Z,62.40
2023-03-30T03:36:27.858Z,62.50
2023-03-30T03:38:55.916Z,62.70
2023-03-30T03:41:24.359Z,62.60
2023-03-30T03:43:52.378Z,62.60
2023-03-30T03:46:21.808Z,62.60
2023-03-30T03:48:51.456Z,62.70
2023-03-30T03:51:19.559Z,62.90
2023-03-30T03:53:48.287Z,63.20
2023-03-30T03:56:16.429Z,63.00
2023-03-30T03:58:44.397Z,62.90
2023-03-30T04:01:14.341Z,62.90
2023-03-30T04:03:43.778Z,63.00
2023-03-30T04:06:11.732Z,63.00
2023-03-30T04:08:39.905Z,63.20
2023-03-30T04:11:22.164Z,63.00
2023-03-30T04:14:01.805Z,62.60
2023-03-30T04:16:49.013Z,62.40
2023-03-30T04:19:37.708Z,62.30
2023-03-30T04:22:16.125Z,62.50
2023-03-30T04:25:22.893Z,62.50
2023-03-30T04:28:04.960Z,62.50
2023-03-30T04:30:45.559Z,62.50
2023-03-30T04:33:51.816Z,62.60
2023-03-30T04:36:44.795Z,62.80
2023-03-30T04:39:29.956Z,63.00
2023-03-30T04:42:06.221Z,62.90
2023-03-30T04:44:51.181Z,62.80
2023-03-30T04:47:37.638Z,62.80
2023-03-30T04:50:11.782Z,62.90
2023-03-30T04:52:41.109Z,63.90
2023-03-30T04:55:26.508Z,63.10
2023-03-30T04:58:23.306Z,63.00
2023-03-30T05:01:01.726Z,62.90
2023-03-30T05:03:56.043Z,63.00
2023-03-30T05:06:59.621Z,63.20
2023-03-30T05:09:53.407Z,63.20
2023-03-30T05:12:40.070Z,63.00
2023-03-30T05:15:13.621Z,62.60
2023-03-30T05:18:11.300Z,62.30
2023-03-30T05:20:58.421Z,62.20
2023-03-30T05:23:49.303Z,62.60
2023-03-30T05:26:46.129Z,62.50
2023-03-30T05:29:32.657Z,62.40
2023-03-30T05:32:18.939Z,62.50
2023-03-30T05:35:07.017Z,62.60
2023-03-30T05:37:55.306Z,62.90
2023-03-30T05:40:42.403Z,62.90
2023-03-30T05:43:26.747Z,62.90
2023-03-30T05:46:24.848Z,62.90
2023-03-30T05:49:18.784Z,63.00
2023-03-30T05:52:07.079Z,63.10
2023-03-30T05:54:53.605Z,63.30
2023-03-30T05:57:45.531Z,63.10
2023-03-30T06:00:22.925Z,63.00
2023-03-30T06:03:07.161Z,63.10
2023-03-30T06:05:35.977Z,63.20
2023-03-30T06:08:05.736Z,63.50
2023-03-30T06:10:33.668Z,63.30
2023-03-30T06:13:01.699Z,63.10
2023-03-30T06:15:42.226Z,62.70
2023-03-30T06:18:14.122Z,62.40
2023-03-30T06:20:49.735Z,62.30
2023-03-30T06:23:17.743Z,62.60
2023-03-30T06:25:47.555Z,62.60
2023-03-30T06:28:16.050Z,62.50
2023-03-30T06:30:48.629Z,62.50
2023-03-30T06:33:20.010Z,62.70
2023-03-30T06:35:55.286Z,62.80
2023-03-30T06:38:24.728Z,63.10
2023-03-30T06:40:54.439Z,63.00
2023-03-30T06:43:25.993Z,62.90
2023-03-30T06:46:05.890Z,62.90
2023-03-30T06:48:33.823Z,63.00
2023-03-30T06:51:24.325Z,63.10
2023-03-30T06:53:56.987Z,63.20
2023-03-30T06:56:26.610Z,63.20
2023-03-30T06:59:07.056Z,63.10
2023-03-30T07:01:51.921Z,63.10
2023-03-30T07:04:31.199Z,63.20
2023-03-30T07:07:14.889Z,63.30
2023-03-30T07:09:43.233Z,63.40
2023-03-30T07:12:11.394Z,63.10
2023-03-30T07:14:39.293Z,62.80
2023-03-30T07:17:09.098Z,62.50
2023-03-30T07:19:37.607Z,62.50
2023-03-30T07:22:05.668Z,62.50
2023-03-30T07:24:33.750Z,62.60
2023-03-30T07:27:01.816Z,62.50
2023-03-30T07:29:29.817Z,62.50
2023-03-30T07:31:59.965Z,62.60
2023-03-30T07:34:29.482Z,62.70
2023-03-30T07:36:59.893Z,63.00
2023-03-30T07:39:33.436Z,63.10
2023-03-30T07:42:03.355Z,63.00
2023-03-30T07:44:31.511Z,63.00
2023-03-30T07:47:06.880Z,63.00
2023-03-30T07:49:37.709Z,63.10
2023-03-30T07:52:07.258Z,63.30
2023-03-30T07:54:48.624Z,63.30
2023-03-30T07:57:19.184Z,63.20
2023-03-30T07:59:47.238Z,63.10
2023-03-30T08:02:29.515Z,63.20
2023-03-30T08:05:00.180Z,63.40
2023-03-30T08:07:48.792Z,63.50
2023-03-30T08:10:23.578Z,63.30
2023-03-30T08:12:51.704Z,63.10
2023-03-30T08:15:21.075Z,62.60
2023-03-30T08:17:49.049Z,62.60
2023-03-30T08:20:18.598Z,62.50
2023-03-30T08:22:47.934Z,62.90
2023-03-30T08:25:18.603Z,62.80
2023-03-30T08:27:47.295Z,62.70
2023-03-30T08:30:16.448Z,62.70
2023-03-30T08:32:45.617Z,62.90
2023-03-30T08:35:13.499Z,62.90
2023-03-30T08:37:43.350Z,63.30
2023-03-30T08:40:12.668Z,63.20
2023-03-30T08:43:06.749Z,63.10
2023-03-30T08:45:36.497Z,63.20
2023-03-30T08:48:05.932Z,63.30
2023-03-30T08:50:34.690Z,63.40
2023-03-30T08:53:04.345Z,63.50
2023-03-30T08:55:33.673Z,63.40
2023-03-30T08:58:03.633Z,63.30
2023-03-30T09:00:36.995Z,63.40
2023-03-30T09:03:09.673Z,63.40
2023-03-30T09:05:40.308Z,63.60
2023-03-30T09:08:13.470Z,63.70
2023-03-30T09:10:43.849Z,63.40
2023-03-30T09:13:13.398Z,63.00
2023-03-30T09:15:43.141Z,62.70
2023-03-30T09:18:15.077Z,62.60
2023-03-30T09:20:44.851Z,62.70
2023-03-30T09:23:16.410Z,62.90
2023-03-30T09:25:47.104Z,62.80
2023-03-30T09:28:17.066Z,62.90
2023-03-30T09:30:46.780Z,62.80
2023-03-30T09:33:27.781Z,63.00
2023-03-30T09:36:05.282Z,63.20
2023-03-30T09:38:34.706Z,63.20
2023-03-30T09:41:12.032Z,63.30
2023-03-30T09:43:43.623Z,63.30
2023-03-30T09:46:11.661Z,63.30
2023-03-30T09:48:41.113Z,63.40
2023-03-30T09:51:16.741Z,63.60
2023-03-30T09:53:46.666Z,63.50
2023-03-30T09:56:19.439Z,63.30
2023-03-30T09:58:47.351Z,63.40
2023-03-30T10:01:16.776Z,63.50
2023-03-30T10:03:47.964Z,63.60
2023-03-30T10:06:18.141Z,63.70
2023-03-30T10:08:51.139Z,63.70
2023-03-30T10:11:20.964Z,63.40
2023-03-30T10:13:49.988Z,63.10
2023-03-30T10:16:24.440Z,62.90
2023-03-30T10:18:53.983Z,62.90
2023-03-30T10:21:27.421Z,63.10
2023-03-30T10:24:08.036Z,63.20
2023-03-30T10:26:37.150Z,63.00
2023-03-30T10:29:05.907Z,63.00
2023-03-30T10:31:36.120Z,63.10
2023-03-30T10:34:04.900Z,63.30
2023-03-30T10:36:33.800Z,63.50
2023-03-30T10:39:08.239Z,63.50
2023-03-30T10:41:36.906Z,63.40
2023-03-30T10:44:16.356Z,63.40
2023-03-30T10:46:47.842Z,63.40
2023-03-30T10:49:19.864Z,63.60
2023-03-30T10:51:54.240Z,63.70
2023-03-30T10:54:26.178Z,63.70
2023-03-30T10:56:55.996Z,63.40
2023-03-30T10:59:40.007Z,63.00
2023-03-30T11:02:39.361Z,63.60
2023-03-30T11:05:09.637Z,62.90
2023-03-30T11:07:41.638Z,63.20
2023-03-30T11:10:16.116Z,63.20
2023-03-30T11:12:45.198Z,63.10
2023-03-30T11:15:15.434Z,63.20
2023-03-30T11:17:48.615Z,63.30
2023-03-30T11:20:23.500Z,63.40
2023-03-30T11:22:52.701Z,63.60
2023-03-30T11:25:23.262Z,63.40
2023-03-30T11:27:56.215Z,63.20
2023-03-30T11:30:27.593Z,63.00
2023-03-30T11:32:57.706Z,63.10
2023-03-30T11:35:30.970Z,63.20
2023-03-30T11:37:59.816Z,63.30
2023-03-30T11:40:35.184Z,63.30
2023-03-30T11:43:03.251Z,63.10
2023-03-30T11:45:49.483Z,63.30
2023-03-30T11:48:47.075Z,63.50
2023-03-30T11:51:30.525Z,63.50
2023-03-30T11:54:01.498Z,63.60
2023-03-30T11:56:35.976Z,63.40
2023-03-30T11:59:05.929Z,63.10
2023-03-30T12:01:47.249Z,62.90
2023-03-30T12:04:16.399Z,63.10
2023-03-30T12:06:49.879Z,63.40
2023-03-30T12:09:33.847Z,63.40
2023-03-30T12:12:11.948Z,63.30
2023-03-30T12:14:55.932Z,63.40
2023-03-30T12:17:38.582Z,63.30
2023-03-30T12:20:12.872Z,63.50
2023-03-30T12:22:42.231Z,63.70
2023-03-30T12:25:16.667Z,63.60
2023-03-30T12:28:00.523Z,63.80
2023-03-30T12:30:30.848Z,63.90
2023-03-30T12:33:03.135Z,64.00
2023-03-30T12:35:56.081Z,64.00
2023-03-30T12:38:25.616Z,63.80
2023-03-30T12:41:04.650Z,63.60
2023-03-30T12:43:38.380Z,63.20
2023-03-30T12:46:08.270Z,62.90
2023-03-30T12:48:39.939Z,63.00
2023-03-30T12:51:12.603Z,63.10
2023-03-30T12:54:14.472Z,63.10
2023-03-30T12:56:47.663Z,63.00
2023-03-30T12:59:30.425Z,63.10
2023-03-30T13:02:04.707Z,63.60
2023-03-30T13:04:37.761Z,63.30
2023-03-30T13:07:06.864Z,63.50
2023-03-30T13:09:36.645Z,63.30
2023-03-30T13:12:22.019Z,63.60
2023-03-30T13:14:58.228Z,63.70
2023-03-30T13:17:27.114Z,63.80
2023-03-30T13:20:29.363Z,63.90
2023-03-30T13:23:22.798Z,63.80
2023-03-30T13:25:54.376Z,63.80
2023-03-30T13:28:48.700Z,63.80
2023-03-30T13:31:42.990Z,64.00
2023-03-30T13:34:17.485Z,64.00
2023-03-30T13:36:47.930Z,63.80
2023-03-30T13:39:17.553Z,63.70
2023-03-30T13:41:50.391Z,64.00
2023-03-30T13:44:40.212Z,62.90
2023-03-30T13:47:15.828Z,62.70
2023-03-30T13:49:47.629Z,62.90
2023-03-30T13:52:17.392Z,63.00
2023-03-30T13:54:45.344Z,62.90
2023-03-30T13:57:14.784Z,63.10
2023-03-30T13:59:44.022Z,63.20
2023-03-30T14:02:14.887Z,63.40
2023-03-30T14:04:44.703Z,63.50
2023-03-30T14:07:16.035Z,63.70
2023-03-30T14:09:44.244Z,63.50
2023-03-30T14:12:12.620Z,63.60
2023-03-30T14:14:43.511Z,63.70
2023-03-30T14:17:16.478Z,63.80
2023-03-30T14:19:48.573Z,64.00
2023-03-30T14:22:18.586Z,63.90
2023-03-30T14:24:57.312Z,63.80
2023-03-30T14:27:25.194Z,63.90
2023-03-30T14:29:53.403Z,64.00
2023-03-30T14:32:24.901Z,63.90
2023-03-30T14:34:53.604Z,64.00
2023-03-30T14:37:21.749Z,64.00
2023-03-30T14:39:51.368Z,63.90
2023-03-30T14:42:20.144Z,63.50
2023-03-30T14:44:48.882Z,63.20
2023-03-30T14:47:16.844Z,63.00
2023-03-30T14:49:47.440Z,63.10
2023-03-30T14:52:17.745Z,63.20
2023-03-30T14:54:57.711Z,63.10
2023-03-30T14:57:34.654Z,63.10
2023-03-30T15:00:10.747Z,63.20
2023-03-30T15:02:41.568Z,63.40
2023-03-30T15:05:11.031Z,63.50
2023-03-30T15:07:39.783Z,63.60
2023-03-30T15:10:09.223Z,63.50
2023-03-30T15:12:38.137Z,63.50
2023-03-30T15:15:07.724Z,63.50
2023-03-30T15:17:36.026Z,63.60
2023-03-30T15:20:06.176Z,63.70
2023-03-30T15:22:36.824Z,63.80
2023-03-30T15:25:06.458Z,63.70
2023-03-30T15:27:34.574Z,63.40
2023-03-30T15:30:02.686Z,63.20
2023-03-30T15:32:32.991Z,63.20
2023-03-30T15:35:05.722Z,63.20
2023-03-30T15:37:35.111Z,63.50
2023-03-30T15:40:03.319Z,63.40
2023-03-30T15:42:33.338Z,63.40
2023-03-30T15:45:05.054Z,63.40
2023-03-30T15:47:33.020Z,63.50
2023-03-30T15:50:01.076Z,63.60
2023-03-30T15:52:36.471Z,63.80
2023-03-30T15:55:07.815Z,63.50
2023-03-30T15:57:35.752Z,63.50
2023-03-30T16:00:08.757Z,63.60
2023-03-30T16:02:38.796Z,63.80
2023-03-30T16:05:07.909Z,63.80
2023-03-30T16:07:37.500Z,64.70
2023-03-30T16:10:08.394Z,63.70
2023-03-30T16:12:36.279Z,63.30
2023-03-30T16:15:04.231Z,62.90
2023-03-30T16:17:33.908Z,63.60
2023-03-30T16:20:06.799Z,62.90
2023-03-30T16:22:34.720Z,63.10
2023-03-30T16:25:02.588Z,63.00
2023-03-30T16:27:32.061Z,63.00
2023-03-30T16:29:59.959Z,63.20
2023-03-30T16:32:34.708Z,63.20
2023-03-30T16:35:05.570Z,63.50
2023-03-30T16:37:33.478Z,63.50
2023-03-30T16:40:01.597Z,63.50
2023-03-30T16:42:31.010Z,63.50
2023-03-30T16:44:58.941Z,63.50
2023-03-30T16:47:27.288Z,63.60
2023-03-30T16:49:55.331Z,63.70
2023-03-30T16:52:23.289Z,63.80
2023-03-30T16:54:51.206Z,63.50
2023-03-30T16:57:19.154Z,63.60
2023-03-30T16:59:48.417Z,64.30
2023-03-30T17:02:18.903Z,63.60
2023-03-30T17:04:47.349Z,63.80
2023-03-30T17:07:15.792Z,63.80
2023-03-30T17:09:43.736Z,63.50
2023-03-30T17:12:11.607Z,63.00
2023-03-30T17:14:42.593Z,62.90
2023-03-30T17:17:12.476Z,62.70
2023-03-30T17:19:40.748Z,62.90
2023-03-30T17:22:09.834Z,62.90
2023-03-30T17:24:37.700Z,62.90
2023-03-30T17:27:06.220Z,62.90
2023-03-30T17:29:34.132Z,63.00
2023-03-30T17:32:02.081Z,63.10
2023-03-30T17:34:31.339Z,63.30
2023-03-30T17:36:59.315Z,63.30
2023-03-30T17:39:29.171Z,63.20
2023-03-30T17:42:00.010Z,63.20
2023-03-30T17:44:28.280Z,63.30
2023-03-30T17:46:56.224Z,63.40
2023-03-30T17:49:24.142Z,63.60
2023-03-30T17:51:53.881Z,63.50
2023-03-30T17:54:23.852Z,63.30
2023-03-30T17:56:51.775Z,62.90
2023-03-30T17:59:19.881Z,62.80
2023-03-30T18:01:47.869Z,62.90
2023-03-30T18:04:15.876Z,63.20
2023-03-30T18:06:43.835Z,63.80
2023-03-30T18:09:15.511Z,63.00
2023-03-30T18:11:43.936Z,63.00
2023-03-30T18:14:11.844Z,63.20
2023-03-30T18:16:41.399Z,63.30
2023-03-30T18:19:10.280Z,63.50
2023-03-30T18:21:38.303Z,63.40
2023-03-30T18:24:07.600Z,63.30
2023-03-30T18:26:42.876Z,63.50
2023-03-30T18:29:16.228Z,63.50
2023-03-30T18:31:44.151Z,63.60
2023-03-30T18:34:12.099Z,63.70
2023-03-30T18:36:40.026Z,63.50
2023-03-30T18:39:11.308Z,63.20
2023-03-30T18:41:41.973Z,63.00
2023-03-30T18:44:10.361Z,63.60
2023-03-30T18:46:38.317Z,62.90
2023-03-30T18:49:06.549Z,63.20
2023-03-30T18:51:35.708Z,63.10
2023-03-30T18:54:03.662Z,63.00
2023-03-30T18:56:33.437Z,63.10
2023-03-30T18:59:06.177Z,63.20
2023-03-30T19:01:34.127Z,63.50
2023-03-30T19:04:02.002Z,63.50
2023-03-30T19:06:29.894Z,63.40
2023-03-30T19:08:57.735Z,63.40
2023-03-30T19:11:26.741Z,63.40
2023-03-30T19:13:54.647Z,63.50
2023-03-30T19:16:23.962Z,63.80
2023-03-30T19:18:53.606Z,63.80
2023-03-30T19:21:21.535Z,63.60
2023-03-30T19:23:50.041Z,63.20
2023-03-30T19:26:17.986Z,63.00
2023-03-30T19:28:45.933Z,62.90
2023-03-30T19:31:15.744Z,63.20
2023-03-30T19:33:45.247Z,63.20
2023-03-30T19:36:13.259Z,63.10
2023-03-30T19:38:43.742Z,63.00
2023-03-30T19:41:11.719Z,63.20
2023-03-30T19:43:39.625Z,63.20
2023-03-30T19:46:09.597Z,63.50
2023-03-30T19:48:37.496Z,63.40
2023-03-30T19:51:07.058Z,63.40
2023-03-30T19:53:35.341Z,63.30
2023-03-30T19:56:03.224Z,63.50
2023-03-30T19:58:31.091Z,63.60
2023-03-30T20:00:58.978Z,63.90
2023-03-30T20:03:27.045Z,63.70
2023-03-30T20:05:55.441Z,63.50
2023-03-30T20:08:25.457Z,63.50
2023-03-30T20:10:53.375Z,63.60
2023-03-30T20:13:23.838Z,63.70
2023-03-30T20:15:56.733Z,63.80
2023-03-30T20:18:24.869Z,63.70
2023-03-30T20:20:52.788Z,64.10
2023-03-30T20:23:20.708Z,62.90
2023-03-30T20:25:52.496Z,62.90
2023-03-30T20:28:20.446Z,62.90
2023-03-30T20:30:48.335Z,63.10
2023-03-30T20:33:16.320Z,63.00
2023-03-30T20:35:44.258Z,63.00
2023-03-30T20:38:12.214Z,63.00
2023-03-30T20:40:40.174Z,63.20
2023-03-30T20:43:10.608Z,63.40
2023-03-30T20:45:45.850Z,63.70
2023-03-30T20:48:26.929Z,63.50
2023-03-30T20:50:55.402Z,63.40
2023-03-30T20:53:23.630Z,63.40
2023-03-30T20:55:51.648Z,63.60
2023-03-30T20:58:22.222Z,63.80
2023-03-30T21:00:53.034Z,63.80
2023-03-30T21:03:21.313Z,63.50
2023-03-30T21:05:49.566Z,63.50
2023-03-30T21:08:17.440Z,63.60
2023-03-30T21:10:45.350Z,63.80
2023-03-30T21:13:14.988Z,63.90
2023-03-30T21:15:45.624Z,63.90
2023-03-30T21:18:13.643Z,63.60
2023-03-30T21:20:41.671Z,63.20
2023-03-30T21:23:09.522Z,63.00
2023-03-30T21:25:37.455Z,62.80
2023-03-30T21:28:06.081Z,62.90
2023-03-30T21:30:35.667Z,63.20
2023-03-30T21:33:07.646Z,63.10
2023-03-30T21:35:35.758Z,63.10
2023-03-30T21:38:04.227Z,63.10
2023-03-30T21:40:33.432Z,63.30
2023-03-30T21:43:01.318Z,63.50
2023-03-30T21:45:29.157Z,63.50
2023-03-30T21:47:57.104Z,63.50
2023-03-30T21:50:26.388Z,63.40
2023-03-30T21:52:58.305Z,63.50
2023-03-30T21:55:26.246Z,63.50
2023-03-30T21:57:54.145Z,63.80
2023-03-30T22:00:22.047Z,63.90
2023-03-30T22:02:50.039Z,63.60
2023-03-30T22:05:18.143Z,63.30
2023-03-30T22:07:47.473Z,63.20
2023-03-30T22:10:16.035Z,63.10
2023-03-30T22:12:46.597Z,63.40
2023-03-30T22:15:14.462Z,63.40
2023-03-30T22:17:42.377Z,63.30
2023-03-30T22:20:11.322Z,63.30
2023-03-30T22:22:39.247Z,63.40
2023-03-30T22:25:09.321Z,63.50
2023-03-30T22:27:39.810Z,63.80
2023-03-30T22:30:09.206Z,63.70
2023-03-30T22:32:37.156Z,63.50
2023-03-30T22:35:06.051Z,63.60
2023-03-30T22:37:33.939Z,63.70
2023-03-30T22:40:01.925Z,63.80
2023-03-30T22:42:31.176Z,64.00
2023-03-30T22:44:59.073Z,63.80
2023-03-30T22:47:27.067Z,63.50
2023-03-30T22:49:55.017Z,63.10
2023-03-30T22:52:22.849Z,63.00
2023-03-30T22:54:50.738Z,62.90
2023-03-30T22:57:18.659Z,63.20
2023-03-30T22:59:47.966Z,63.10
2023-03-30T23:02:15.925Z,63.10
2023-03-30T23:04:47.234Z,63.10
2023-03-30T23:07:15.251Z,63.10
2023-03-30T23:09:47.477Z,63.40
2023-03-30T23:12:15.405Z,63.60
2023-03-30T23:14:44.566Z,63.60
2023-03-30T23:17:13.874Z,63.50
2023-03-30T23:19:41.771Z,63.40
2023-03-30T23:22:09.631Z,63.50
2023-03-30T23:24:38.580Z,63.70
2023-03-30T23:27:06.445Z,63.90
2023-03-30T23:29:34.378Z,63.80
2023-03-30T23:32:02.297Z,63.40
2023-03-30T23:34:32.006Z,63.10
2023-03-30T23:37:02.538Z,63.10
2023-03-30T23:39:30.589Z,63.20
2023-03-30T23:41:58.481Z,63.30
2023-03-30T23:44:26.416Z,63.30
2023-03-30T23:46:54.339Z,63.20
2023-03-30T23:49:22.381Z,63.30
2023-03-30T23:51:52.842Z,63.40
2023-03-30T23:54:21.121Z,63.60
2023-03-30T23:56:57.058Z,63.80
2023-03-30T23:59:25.250Z,63.60
